sensor_id;sensor_type;location;lat;lon;timestamp;pressure;altitude;pressure_sealevel;temperature;humidity
28911;BME280;16028;42.642;23.310;2023-03-26T00:01:25;93516.63;;;10.30;79.84
28911;BME280;16028;42.642;23.310;2023-03-26T00:03:53;93502.94;;;10.20;80.10
28911;BME280;16028;42.642;23.310;2023-03-26T00:06:22;93523.22;;;10.17;80.86
28911;BME280;16028;42.642;23.310;2023-03-26T00:08:51;93529.38;;;10.16;81.15
28911;BME280;16028;42.642;23.310;2023-03-26T00:11:20;93538.28;;;10.05;81.35
28911;BME280;16028;42.642;23.310;2023-03-26T00:13:47;93530.00;;;10.09;81.43
28911;BME280;16028;42.642;23.310;2023-03-26T00:16:15;93527.78;;;10.15;81.73
28911;BME280;16028;42.642;23.310;2023-03-26T00:18:42;93525.53;;;10.28;81.09
28911;BME280;16028;42.642;23.310;2023-03-26T00:21:09;93525.22;;;10.31;80.71
28911;BME280;16028;42.642;23.310;2023-03-26T00:23:37;93512.56;;;10.36;80.51
28911;BME280;16028;42.642;23.310;2023-03-26T00:26:04;93510.97;;;10.43;79.27
28911;BME280;16028;42.642;23.310;2023-03-26T00:28:36;93512.56;;;10.36;80.11
28911;BME280;16028;42.642;23.310;2023-03-26T00:31:06;93507.88;;;10.47;79.59
28911;BME280;16028;42.642;23.310;2023-03-26T00:33:33;93511.28;;;10.40;79.46
28911;BME280;16028;42.642;23.310;2023-03-26T00:36:03;93500.72;;;10.33;79.82
28911;BME280;16028;42.642;23.310;2023-03-26T00:38:30;93498.09;;;10.33;79.68
28911;BME280;16028;42.642;23.310;2023-03-26T00:40:58;93489.00;;;10.29;80.23
28911;BME280;16028;42.642;23.310;2023-03-26T00:43:30;93490.59;;;10.22;80.97
28911;BME280;16028;42.642;23.310;2023-03-26T00:45:58;93492.72;;;10.27;80.99
28911;BME280;16028;42.642;23.310;2023-03-26T00:48:26;93503.31;;;10.33;80.70
28911;BME280;16028;42.642;23.310;2023-03-26T00:50:54;93500.41;;;10.44;80.75
28911;BME280;16028;42.642;23.310;2023-03-26T00:53:20;93507.22;;;10.45;80.40
28911;BME280;16028;42.642;23.310;2023-03-26T00:55:47;93496.69;;;10.55;79.24
28911;BME280;16028;42.642;23.310;2023-03-26T00:58:14;93504.78;;;10.44;79.37
28911;BME280;16028;42.642;23.310;2023-03-26T01:00:42;93501.72;;;10.48;78.79
28911;BME280;16028;42.642;23.310;2023-03-26T01:03:11;93497.16;;;10.42;79.87
28911;BME280;16028;42.642;23.310;2023-03-26T01:05:40;93492.13;;;10.49;79.39
28911;BME280;16028;42.642;23.310;2023-03-26T01:08:11;93496.19;;;10.51;79.00
28911;BME280;16028;42.642;23.310;2023-03-26T01:10:39;93489.81;;;10.38;79.38
28911;BME280;16028;42.642;23.310;2023-03-26T01:13:06;93502.31;;;10.34;79.25
28911;BME280;16028;42.642;23.310;2023-03-26T01:15:32;93502.19;;;10.36;78.80
28911;BME280;16028;42.642;23.310;2023-03-26T01:18:03;93503.00;;;10.36;78.82
28911;BME280;16028;42.642;23.310;2023-03-26T01:20:35;93502.19;;;10.36;77.90
28911;BME280;16028;42.642;23.310;2023-03-26T01:23:11;93498.94;;;10.34;78.27
28911;BME280;16028;42.642;23.310;2023-03-26T01:25:43;93508.84;;;10.38;78.19
28911;BME280;16028;42.642;23.310;2023-03-26T01:28:15;93515.00;;;10.29;78.81
28911;BME280;16028;42.642;23.310;2023-03-26T01:30:45;93517.91;;;10.26;79.35
28911;BME280;16028;42.642;23.310;2023-03-26T01:33:15;93515.94;;;10.28;79.90
28911;BME280;16028;42.642;23.310;2023-03-26T01:35:46;93517.78;;;10.36;79.97
28911;BME280;16028;42.642;23.310;2023-03-26T01:38:19;93521.81;;;10.30;80.20
28911;BME280;16028;42.642;23.310;2023-03-26T01:40:50;93517.59;;;10.29;80.31
28911;BME280;16028;42.642;23.310;2023-03-26T01:43:23;93518.91;;;10.33;80.25
28911;BME280;16028;42.642;23.310;2023-03-26T01:45:52;93525.84;;;10.25;81.28
28911;BME280;16028;42.642;23.310;2023-03-26T01:48:19;93529.25;;;10.25;81.53
28911;BME280;16028;42.642;23.310;2023-03-26T01:50:45;93524.56;;;10.21;81.90
28911;BME280;16028;42.642;23.310;2023-03-26T01:53:17;93527.03;;;10.30;81.80
28911;BME280;16028;42.642;23.310;2023-03-26T01:55:47;93526.34;;;10.28;81.57
28911;BME280;16028;42.642;23.310;2023-03-26T01:58:23;93523.78;;;10.36;81.25
28911;BME280;16028;42.642;23.310;2023-03-26T02:00:54;93525.06;;;10.24;82.09
28911;BME280;16028;42.642;23.310;2023-03-26T02:03:26;93524.88;;;10.26;82.70
28911;BME280;16028;42.642;23.310;2023-03-26T02:05:56;93526.03;;;10.31;81.89
28911;BME280;16028;42.642;23.310;2023-03-26T02:08:27;93519.88;;;10.32;81.35
28911;BME280;16028;42.642;23.310;2023-03-26T02:10:59;93526.66;;;10.25;80.73
28911;BME280;16028;42.642;23.310;2023-03-26T02:13:30;93522.75;;;10.21;81.13
28911;BME280;16028;42.642;23.310;2023-03-26T02:15:58;93525.97;;;10.15;81.47
28911;BME280;16028;42.642;23.310;2023-03-26T02:18:25;93518.94;;;10.07;81.88
28911;BME280;16028;42.642;23.310;2023-03-26T02:21:01;93522.69;;;10.05;82.06
28911;BME280;16028;42.642;23.310;2023-03-26T02:23:27;93517.88;;;10.18;80.40
28911;BME280;16028;42.642;23.310;2023-03-26T02:25:54;93518.19;;;10.15;80.56
28911;BME280;16028;42.642;23.310;2023-03-26T02:28:21;93511.78;;;10.09;80.16
28911;BME280;16028;42.642;23.310;2023-03-26T02:30:48;93510.47;;;10.05;80.87
28911;BME280;16028;42.642;23.310;2023-03-26T02:33:16;93508.69;;;9.98;81.75
28911;BME280;16028;42.642;23.310;2023-03-26T02:35:43;93518.13;;;10.07;81.67
28911;BME280;16028;42.642;23.310;2023-03-26T02:38:10;93517.22;;;10.16;80.04
28911;BME280;16028;42.642;23.310;2023-03-26T02:40:40;93528.94;;;10.20;78.55
28911;BME280;16028;42.642;23.310;2023-03-26T02:43:06;93522.91;;;10.20;78.31
28911;BME280;16028;42.642;23.310;2023-03-26T02:45:33;93528.13;;;10.20;78.62
28911;BME280;16028;42.642;23.310;2023-03-26T02:48:01;93530.09;;;10.26;78.25
28911;BME280;16028;42.642;23.310;2023-03-26T02:50:27;93543.41;;;10.31;78.92
28911;BME280;16028;42.642;23.310;2023-03-26T02:52:57;93548.47;;;10.32;78.49
28911;BME280;16028;42.642;23.310;2023-03-26T02:55:23;93556.59;;;10.37;78.44
28911;BME280;16028;42.642;23.310;2023-03-26T02:57:50;93566.03;;;10.38;78.41
28911;BME280;16028;42.642;23.310;2023-03-26T03:00:16;93571.84;;;10.32;78.59
28911;BME280;16028;42.642;23.310;2023-03-26T03:02:46;93567.00;;;10.37;79.03
28911;BME280;16028;42.642;23.310;2023-03-26T03:05:15;93570.91;;;10.41;78.38
28911;BME280;16028;42.642;23.310;2023-03-26T03:07:42;93566.53;;;10.42;78.52
28911;BME280;16028;42.642;23.310;2023-03-26T03:10:10;93568.94;;;10.35;78.40
28911;BME280;16028;42.642;23.310;2023-03-26T03:12:37;93574.28;;;10.26;79.13
28911;BME280;16028;42.642;23.310;2023-03-26T03:15:05;93580.72;;;10.14;79.31
28911;BME280;16028;42.642;23.310;2023-03-26T03:17:31;93580.00;;;10.11;79.80
28911;BME280;16028;42.642;23.310;2023-03-26T03:19:58;93574.66;;;10.05;80.10
28911;BME280;16028;42.642;23.310;2023-03-26T03:22:26;93572.00;;;9.97;80.31
28911;BME280;16028;42.642;23.310;2023-03-26T03:24:52;93571.78;;;9.90;80.78
28911;BME280;16028;42.642;23.310;2023-03-26T03:27:21;93567.00;;;9.78;81.19
28911;BME280;16028;42.642;23.310;2023-03-26T03:29:50;93568.91;;;9.68;81.54
28911;BME280;16028;42.642;23.310;2023-03-26T03:32:17;93567.56;;;9.64;81.73
28911;BME280;16028;42.642;23.310;2023-03-26T03:34:46;93562.97;;;9.57;82.51
28911;BME280;16028;42.642;23.310;2023-03-26T03:37:14;93563.91;;;9.48;82.64
28911;BME280;16028;42.642;23.310;2023-03-26T03:39:42;93566.19;;;9.51;83.00
28911;BME280;16028;42.642;23.310;2023-03-26T03:42:08;93565.25;;;9.52;83.03
28911;BME280;16028;42.642;23.310;2023-03-26T03:44:35;93562.47;;;9.54;82.88
28911;BME280;16028;42.642;23.310;2023-03-26T03:47:01;93555.81;;;9.51;82.92
28911;BME280;16028;42.642;23.310;2023-03-26T03:49:28;93555.16;;;9.49;82.49
28911;BME280;16028;42.642;23.310;2023-03-26T03:51:54;93562.28;;;9.47;82.67
28911;BME280;16028;42.642;23.310;2023-03-26T03:54:21;93565.03;;;9.46;82.82
28911;BME280;16028;42.642;23.310;2023-03-26T03:56:49;93565.97;;;9.45;82.59
28911;BME280;16028;42.642;23.310;2023-03-26T03:59:15;93573.78;;;9.45;82.43
28911;BME280;16028;42.642;23.310;2023-03-26T04:01:42;93587.22;;;9.40;82.23
28911;BME280;16028;42.642;23.310;2023-03-26T04:04:10;93590.78;;;9.39;82.84
28911;BME280;16028;42.642;23.310;2023-03-26T04:06:37;93585.06;;;9.36;82.73
28911;BME280;16028;42.642;23.310;2023-03-26T04:09:04;93579.22;;;9.34;82.43
28911;BME280;16028;42.642;23.310;2023-03-26T04:11:30;93589.09;;;9.30;82.42
28911;BME280;16028;42.642;23.310;2023-03-26T04:13:58;93600.63;;;9.36;82.36
28911;BME280;16028;42.642;23.310;2023-03-26T04:16:25;93601.47;;;9.36;82.53
28911;BME280;16028;42.642;23.310;2023-03-26T04:18:52;93618.50;;;9.39;82.60
28911;BME280;16028;42.642;23.310;2023-03-26T04:21:18;93622.53;;;9.33;82.34
28911;BME280;16028;42.642;23.310;2023-03-26T04:23:45;93620.75;;;9.34;82.79
28911;BME280;16028;42.642;23.310;2023-03-26T04:26:12;93627.72;;;9.33;83.05
28911;BME280;16028;42.642;23.310;2023-03-26T04:28:41;93637.78;;;9.36;82.89
28911;BME280;16028;42.642;23.310;2023-03-26T04:31:12;93637.28;;;9.33;82.92
28911;BME280;16028;42.642;23.310;2023-03-26T04:33:40;93637.75;;;9.28;83.45
28911;BME280;16028;42.642;23.310;2023-03-26T04:36:11;93650.03;;;9.26;83.74
28911;BME280;16028;42.642;23.310;2023-03-26T04:38:39;93651.50;;;9.29;83.36
28911;BME280;16028;42.642;23.310;2023-03-26T04:41:06;93664.47;;;9.29;83.13
28911;BME280;16028;42.642;23.310;2023-03-26T04:43:32;93663.41;;;9.31;83.86
28911;BME280;16028;42.642;23.310;2023-03-26T04:45:59;93672.78;;;9.32;83.72
28911;BME280;16028;42.642;23.310;2023-03-26T04:48:28;93666.50;;;9.35;83.66
28911;BME280;16028;42.642;23.310;2023-03-26T04:50:55;93672.13;;;9.30;82.83
28911;BME280;16028;42.642;23.310;2023-03-26T04:53:22;93672.78;;;9.32;82.28
28911;BME280;16028;42.642;23.310;2023-03-26T04:55:50;93666.72;;;9.24;81.69
28911;BME280;16028;42.642;23.310;2023-03-26T04:58:18;93670.44;;;9.21;81.57
28911;BME280;16028;42.642;23.310;2023-03-26T05:00:45;93679.16;;;9.20;81.01
28911;BME280;16028;42.642;23.310;2023-03-26T05:03:14;93667.66;;;9.23;80.77
28911;BME280;16028;42.642;23.310;2023-03-26T05:05:42;93672.44;;;9.27;79.80
28911;BME280;16028;42.642;23.310;2023-03-26T05:08:08;93663.16;;;9.25;78.30
28911;BME280;16028;42.642;23.310;2023-03-26T05:10:35;93669.38;;;9.32;78.61
28911;BME280;16028;42.642;23.310;2023-03-26T05:13:01;93678.28;;;9.29;77.68
28911;BME280;16028;42.642;23.310;2023-03-26T05:15:28;93681.91;;;9.36;77.13
28911;BME280;16028;42.642;23.310;2023-03-26T05:17:55;93682.00;;;9.44;76.26
28911;BME280;16028;42.642;23.310;2023-03-26T05:20:22;93690.38;;;9.56;75.87
28911;BME280;16028;42.642;23.310;2023-03-26T05:22:52;93692.50;;;9.61;75.61
28911;BME280;16028;42.642;23.310;2023-03-26T05:25:18;93682.41;;;9.57;75.08
28911;BME280;16028;42.642;23.310;2023-03-26T05:27:45;93694.06;;;9.71;74.30
28911;BME280;16028;42.642;23.310;2023-03-26T05:30:12;93690.72;;;9.79;74.53
28911;BME280;16028;42.642;23.310;2023-03-26T05:32:39;93699.69;;;9.84;74.83
28911;BME280;16028;42.642;23.310;2023-03-26T05:35:06;93696.59;;;10.06;73.67
28911;BME280;16028;42.642;23.310;2023-03-26T05:37:33;93692.88;;;10.09;74.08
28911;BME280;16028;42.642;23.310;2023-03-26T05:40:03;93687.78;;;10.17;73.12
28911;BME280;16028;42.642;23.310;2023-03-26T05:42:35;93689.38;;;10.18;73.50
28911;BME280;16028;42.642;23.310;2023-03-26T05:45:02;93697.03;;;10.20;73.33
28911;BME280;16028;42.642;23.310;2023-03-26T05:47:28;93694.03;;;10.32;72.92
28911;BME280;16028;42.642;23.310;2023-03-26T05:49:56;93699.09;;;10.34;72.37
28911;BME280;16028;42.642;23.310;2023-03-26T05:52:22;93703.97;;;10.37;72.16
28911;BME280;16028;42.642;23.310;2023-03-26T05:54:49;93704.31;;;10.42;72.53
28911;BME280;16028;42.642;23.310;2023-03-26T05:57:17;93699.13;;;10.42;73.12
28911;BME280;16028;42.642;23.310;2023-03-26T05:59:43;93701.22;;;10.38;73.89
28911;BME280;16028;42.642;23.310;2023-03-26T06:02:10;93697.69;;;10.47;73.24
28911;BME280;16028;42.642;23.310;2023-03-26T06:04:36;93699.78;;;10.44;72.24
28911;BME280;16028;42.642;23.310;2023-03-26T06:07:05;93687.28;;;10.47;72.28
28911;BME280;16028;42.642;23.310;2023-03-26T06:09:34;93683.22;;;10.45;72.14
28911;BME280;16028;42.642;23.310;2023-03-26T06:12:01;93699.13;;;10.42;72.12
28911;BME280;16028;42.642;23.310;2023-03-26T06:14:29;93695.06;;;10.39;71.28
28911;BME280;16028;42.642;23.310;2023-03-26T06:16:56;93672.00;;;10.44;70.95
28911;BME280;16028;42.642;23.310;2023-03-26T06:19:22;93682.56;;;10.43;71.18
28911;BME280;16028;42.642;23.310;2023-03-26T06:21:49;93676.38;;;10.44;70.52
28911;BME280;16028;42.642;23.310;2023-03-26T06:24:15;93679.59;;;10.38;71.52
28911;BME280;16028;42.642;23.310;2023-03-26T06:26:44;93687.44;;;10.46;70.10
28911;BME280;16028;42.642;23.310;2023-03-26T06:29:10;93680.47;;;10.46;71.29
28911;BME280;16028;42.642;23.310;2023-03-26T06:31:38;93690.50;;;10.41;71.00
28911;BME280;16028;42.642;23.310;2023-03-26T06:34:05;93688.22;;;10.38;71.40
28911;BME280;16028;42.642;23.310;2023-03-26T06:36:32;93681.06;;;10.40;71.65
28911;BME280;16028;42.642;23.310;2023-03-26T06:38:59;93681.06;;;10.40;69.84
28911;BME280;16028;42.642;23.310;2023-03-26T06:41:25;93669.56;;;10.43;70.18
28911;BME280;16028;42.642;23.310;2023-03-26T06:43:52;93680.47;;;10.46;69.54
28911;BME280;16028;42.642;23.310;2023-03-26T06:46:18;93677.69;;;10.40;70.69
28911;BME280;16028;42.642;23.310;2023-03-26T06:48:46;93669.88;;;10.40;70.44
28911;BME280;16028;42.642;23.310;2023-03-26T06:51:13;93679.25;;;10.33;70.86
28911;BME280;16028;42.642;23.310;2023-03-26T06:53:39;93689.19;;;10.37;70.60
28911;BME280;16028;42.642;23.310;2023-03-26T06:56:06;93693.09;;;10.41;70.15
28911;BME280;16028;42.642;23.310;2023-03-26T06:58:33;93697.19;;;10.44;70.17
28911;BME280;16028;42.642;23.310;2023-03-26T07:01:00;93708.09;;;10.47;69.02
28911;BME280;16028;42.642;23.310;2023-03-26T07:03:26;93715.75;;;10.49;69.71
28911;BME280;16028;42.642;23.310;2023-03-26T07:05:55;93717.88;;;10.53;70.74
28911;BME280;16028;42.642;23.310;2023-03-26T07:08:21;93716.16;;;10.62;70.12
28911;BME280;16028;42.642;23.310;2023-03-26T07:10:51;93714.38;;;10.71;70.06
28911;BME280;16028;42.642;23.310;2023-03-26T07:13:17;93723.31;;;10.68;66.99
28911;BME280;16028;42.642;23.310;2023-03-26T07:15:44;93719.91;;;10.68;66.10
28911;BME280;16028;42.642;23.310;2023-03-26T07:18:11;93722.13;;;10.62;65.60
28911;BME280;16028;42.642;23.310;2023-03-26T07:20:37;93713.22;;;10.65;67.27
28911;BME280;16028;42.642;23.310;2023-03-26T07:23:06;93712.44;;;10.73;66.86
28911;BME280;16028;42.642;23.310;2023-03-26T07:25:33;93711.47;;;10.74;66.24
28911;BME280;16028;42.642;23.310;2023-03-26T07:28:01;93701.09;;;10.82;66.56
28911;BME280;16028;42.642;23.310;2023-03-26T07:30:43;93699.19;;;10.92;66.26
28911;BME280;16028;42.642;23.310;2023-03-26T07:33:13;93695.94;;;10.98;66.01
28911;BME280;16028;42.642;23.310;2023-03-26T07:35:42;93694.84;;;11.00;65.74
28911;BME280;16028;42.642;23.310;2023-03-26T07:38:18;93692.75;;;11.04;63.40
28911;BME280;16028;42.642;23.310;2023-03-26T07:40:49;93685.75;;;11.12;65.04
28911;BME280;16028;42.642;23.310;2023-03-26T07:43:21;93686.75;;;11.20;64.68
28911;BME280;16028;42.642;23.310;2023-03-26T07:45:53;93689.38;;;11.28;64.83
28911;BME280;16028;42.642;23.310;2023-03-26T07:48:22;93679.78;;;11.28;62.32
28911;BME280;16028;42.642;23.310;2023-03-26T07:50:51;93692.16;;;11.42;61.13
28911;BME280;16028;42.642;23.310;2023-03-26T07:53:20;93690.03;;;11.46;62.97
28911;BME280;16028;42.642;23.310;2023-03-26T07:55:48;93694.31;;;11.55;60.66
28911;BME280;16028;42.642;23.310;2023-03-26T07:58:21;93692.84;;;11.68;59.31
28911;BME280;16028;42.642;23.310;2023-03-26T08:00:52;93683.09;;;11.79;56.11
28911;BME280;16028;42.642;23.310;2023-03-26T08:03:27;93693.88;;;11.84;54.42
28911;BME280;16028;42.642;23.310;2023-03-26T08:05:59;93678.38;;;11.90;54.08
28911;BME280;16028;42.642;23.310;2023-03-26T08:08:32;93675.59;;;12.00;54.83
28911;BME280;16028;42.642;23.310;2023-03-26T08:11:08;93675.44;;;12.01;52.58
28911;BME280;16028;42.642;23.310;2023-03-26T08:13:38;93680.00;;;12.07;51.49
28911;BME280;16028;42.642;23.310;2023-03-26T08:16:10;93679.66;;;12.10;52.52
28911;BME280;16028;42.642;23.310;2023-03-26T08:18:45;93690.72;;;12.12;53.15
28911;BME280;16028;42.642;23.310;2023-03-26T08:21:16;93682.44;;;12.17;52.24
28911;BME280;16028;42.642;23.310;2023-03-26T08:23:49;93690.06;;;12.27;52.80
28911;BME280;16028;42.642;23.310;2023-03-26T08:26:18;93684.72;;;12.28;53.61
28911;BME280;16028;42.642;23.310;2023-03-26T08:28:54;93687.47;;;12.35;53.04
28911;BME280;16028;42.642;23.310;2023-03-26T08:31:26;93689.59;;;12.31;53.87
28911;BME280;16028;42.642;23.310;2023-03-26T08:33:56;93692.81;;;12.41;53.72
28911;BME280;16028;42.642;23.310;2023-03-26T08:36:23;93685.94;;;12.48;53.36
28911;BME280;16028;42.642;23.310;2023-03-26T08:38:51;93691.03;;;12.50;53.45
28911;BME280;16028;42.642;23.310;2023-03-26T08:41:40;93691.31;;;12.55;53.53
28911;BME280;16028;42.642;23.310;2023-03-26T08:44:24;93688.03;;;12.61;52.61
28911;BME280;16028;42.642;23.310;2023-03-26T08:47:00;93686.91;;;12.63;49.89
28911;BME280;16028;42.642;23.310;2023-03-26T08:55:10;93686.88;;;12.71;51.06
28911;BME280;16028;42.642;23.310;2023-03-26T09:00:34;93693.88;;;12.71;49.15
28911;BME280;16028;42.642;23.310;2023-03-26T09:03:07;93682.28;;;12.73;50.93
28911;BME280;16028;42.642;23.310;2023-03-26T09:05:44;93682.09;;;12.83;51.34
28911;BME280;16028;42.642;23.310;2023-03-26T09:08:24;93684.84;;;12.90;51.58
28911;BME280;16028;42.642;23.310;2023-03-26T09:11:05;93686.78;;;12.96;51.57
28911;BME280;16028;42.642;23.310;2023-03-26T09:13:58;93686.78;;;12.96;51.12
28911;BME280;16028;42.642;23.310;2023-03-26T09:16:37;93683.47;;;13.02;50.63
28911;BME280;16028;42.642;23.310;2023-03-26T09:27:52;93663.25;;;13.04;48.68
28911;BME280;16028;42.642;23.310;2023-03-26T09:36:09;93660.94;;;13.17;47.66
28911;BME280;16028;42.642;23.310;2023-03-26T09:38:42;93667.03;;;13.32;45.39
28911;BME280;16028;42.642;23.310;2023-03-26T09:41:13;93668.69;;;13.33;44.75
28911;BME280;16028;42.642;23.310;2023-03-26T09:43:46;93679.81;;;13.27;46.78
28911;BME280;16028;42.642;23.310;2023-03-26T09:46:21;93673.72;;;13.35;46.62
28911;BME280;16028;42.642;23.310;2023-03-26T09:57:01;93664.69;;;13.45;45.24
28911;BME280;16028;42.642;23.310;2023-03-26T09:59:39;93668.94;;;13.46;45.58
28911;BME280;16028;42.642;23.310;2023-03-26T10:02:14;93666.66;;;13.43;44.79
28911;BME280;16028;42.642;23.310;2023-03-26T10:04:55;93664.84;;;13.44;46.17
28911;BME280;16028;42.642;23.310;2023-03-26T10:07:35;93656.84;;;13.45;46.37
28911;BME280;16028;42.642;23.310;2023-03-26T10:10:06;93642.22;;;13.59;45.81
28911;BME280;16028;42.642;23.310;2023-03-26T10:12:38;93642.50;;;13.64;44.72
28911;BME280;16028;42.642;23.310;2023-03-26T10:15:15;93638.25;;;13.63;45.39
28911;BME280;16028;42.642;23.310;2023-03-26T10:17:50;93631.06;;;13.65;43.68
28911;BME280;16028;42.642;23.310;2023-03-26T10:23:07;93609.34;;;13.64;42.60
28911;BME280;16028;42.642;23.310;2023-03-26T10:25:41;93607.53;;;13.65;41.53
28911;BME280;16028;42.642;23.310;2023-03-26T10:28:19;93618.03;;;13.79;39.29
28911;BME280;16028;42.642;23.310;2023-03-26T10:31:02;93612.09;;;13.86;40.91
28911;BME280;16028;42.642;23.310;2023-03-26T10:33:34;93592.91;;;13.93;40.41
28911;BME280;16028;42.642;23.310;2023-03-26T10:36:12;93602.19;;;13.96;39.95
28911;BME280;16028;42.642;23.310;2023-03-26T10:38:50;93598.13;;;13.93;40.88
28911;BME280;16028;42.642;23.310;2023-03-26T10:41:20;93599.84;;;14.01;38.58
28911;BME280;16028;42.642;23.310;2023-03-26T10:52:16;93580.41;;;14.32;38.15
28911;BME280;16028;42.642;23.310;2023-03-26T10:54:47;93582.41;;;14.45;38.23
28911;BME280;16028;42.642;23.310;2023-03-26T10:57:19;93574.47;;;14.53;39.39
28911;BME280;16028;42.642;23.310;2023-03-26T10:59:50;93560.72;;;14.66;37.93
28911;BME280;16028;42.642;23.310;2023-03-26T11:02:21;93564.59;;;14.70;36.82
28911;BME280;16028;42.642;23.310;2023-03-26T11:04:52;93562.75;;;14.85;39.02
28911;BME280;16028;42.642;23.310;2023-03-26T11:07:23;93562.22;;;14.90;36.20
28911;BME280;16028;42.642;23.310;2023-03-26T11:09:54;93568.06;;;14.92;35.64
28911;BME280;16028;42.642;23.310;2023-03-26T11:12:25;93567.34;;;14.98;36.24
28911;BME280;16028;42.642;23.310;2023-03-26T11:15:01;93551.00;;;15.17;35.94
28911;BME280;16028;42.642;23.310;2023-03-26T11:17:33;93557.50;;;15.21;34.53
28911;BME280;16028;42.642;23.310;2023-03-26T11:20:04;93565.22;;;15.08;33.34
28911;BME280;16028;42.642;23.310;2023-03-26T11:22:36;93551.00;;;14.96;37.48
28911;BME280;16028;42.642;23.310;2023-03-26T11:25:13;93549.88;;;15.05;33.77
28911;BME280;16028;42.642;23.310;2023-03-26T11:27:48;93539.78;;;15.02;37.24
28911;BME280;16028;42.642;23.310;2023-03-26T11:30:20;93530.19;;;15.09;34.86
28911;BME280;16028;42.642;23.310;2023-03-26T11:32:49;93543.59;;;14.99;34.78
28911;BME280;16028;42.642;23.310;2023-03-26T11:35:18;93541.66;;;14.87;33.85
28911;BME280;16028;42.642;23.310;2023-03-26T11:37:49;93533.78;;;14.87;33.81
28911;BME280;16028;42.642;23.310;2023-03-26T11:40:19;93525.34;;;14.91;35.81
28911;BME280;16028;42.642;23.310;2023-03-26T11:42:48;93542.25;;;14.89;35.14
28911;BME280;16028;42.642;23.310;2023-03-26T11:45:17;93516.13;;;14.95;35.21
28911;BME280;16028;42.642;23.310;2023-03-26T11:47:47;93507.53;;;15.01;35.07
28911;BME280;16028;42.642;23.310;2023-03-26T11:50:17;93498.81;;;15.15;35.32
28911;BME280;16028;42.642;23.310;2023-03-26T11:52:45;93496.97;;;15.16;35.45
28911;BME280;16028;42.642;23.310;2023-03-26T11:55:13;93495.00;;;15.18;36.21
28911;BME280;16028;42.642;23.310;2023-03-26T11:57:43;93478.22;;;15.33;35.71
28911;BME280;16028;42.642;23.310;2023-03-26T12:00:13;93475.69;;;15.47;36.24
28911;BME280;16028;42.642;23.310;2023-03-26T12:02:43;93465.03;;;15.48;35.35
28911;BME280;16028;42.642;23.310;2023-03-26T12:05:11;93469.75;;;15.38;35.42
28911;BME280;16028;42.642;23.310;2023-03-26T12:07:43;93460.34;;;15.44;36.66
28911;BME280;16028;42.642;23.310;2023-03-26T12:10:20;93459.72;;;15.63;36.23
28911;BME280;16028;42.642;23.310;2023-03-26T12:12:48;93460.75;;;15.68;35.15
28911;BME280;16028;42.642;23.310;2023-03-26T12:15:18;93457.91;;;15.70;38.00
28911;BME280;16028;42.642;23.310;2023-03-26T12:17:45;93446.72;;;15.82;34.04
28911;BME280;16028;42.642;23.310;2023-03-26T12:20:29;93440.25;;;15.78;34.28
28911;BME280;16028;42.642;23.310;2023-03-26T12:22:57;93441.78;;;16.01;34.10
28911;BME280;16028;42.642;23.310;2023-03-26T12:25:25;93436.59;;;16.14;32.87
28911;BME280;16028;42.642;23.310;2023-03-26T12:27:57;93444.78;;;15.98;33.56
28911;BME280;16028;42.642;23.310;2023-03-26T12:30:27;93427.38;;;15.90;35.34
28911;BME280;16028;42.642;23.310;2023-03-26T12:32:55;93421.31;;;16.24;37.52
28911;BME280;16028;42.642;23.310;2023-03-26T12:35:22;93425.47;;;16.59;33.12
28911;BME280;16028;42.642;23.310;2023-03-26T12:37:51;93427.13;;;16.67;31.46
28911;BME280;16028;42.642;23.310;2023-03-26T12:40:28;93409.97;;;16.71;32.35
28911;BME280;16028;42.642;23.310;2023-03-26T12:42:57;93413.63;;;16.96;34.64
28911;BME280;16028;42.642;23.310;2023-03-26T12:45:27;93404.53;;;17.05;30.23
28911;BME280;16028;42.642;23.310;2023-03-26T12:47:54;93406.13;;;16.80;30.19
28911;BME280;16028;42.642;23.310;2023-03-26T12:50:22;93404.28;;;16.61;29.92
28911;BME280;16028;42.642;23.310;2023-03-26T12:52:55;93408.47;;;16.49;30.04
28911;BME280;16028;42.642;23.310;2023-03-26T12:55:30;93406.03;;;16.47;29.62
28911;BME280;16028;42.642;23.310;2023-03-26T12:58:05;93394.09;;;16.45;30.42
28911;BME280;16028;42.642;23.310;2023-03-26T13:00:41;93388.13;;;16.64;33.52
28911;BME280;16028;42.642;23.310;2023-03-26T13:03:17;93390.19;;;17.21;29.09
28911;BME280;16028;42.642;23.310;2023-03-26T13:06:01;93389.78;;;17.30;28.57
28911;BME280;16028;42.642;23.310;2023-03-26T13:11:32;93392.00;;;17.27;30.45
28911;BME280;16028;42.642;23.310;2023-03-26T13:14:16;93383.31;;;17.07;30.83
28911;BME280;16028;42.642;23.310;2023-03-26T13:16:50;93383.09;;;17.02;26.90
28911;BME280;16028;42.642;23.310;2023-03-26T13:19:21;93383.09;;;17.02;28.04
28911;BME280;16028;42.642;23.310;2023-03-26T13:21:54;93381.69;;;16.99;26.24
28911;BME280;16028;42.642;23.310;2023-03-26T13:24:28;93381.09;;;16.90;24.71
28911;BME280;16028;42.642;23.310;2023-03-26T13:27:00;93384.09;;;16.68;25.73
28911;BME280;16028;42.642;23.310;2023-03-26T13:29:31;93393.38;;;16.70;26.17
28911;BME280;16028;42.642;23.310;2023-03-26T13:32:03;93377.66;;;16.83;27.62
28911;BME280;16028;42.642;23.310;2023-03-26T13:34:35;93378.88;;;16.87;29.77
28911;BME280;16028;42.642;23.310;2023-03-26T13:37:06;93373.41;;;17.09;29.15
28911;BME280;16028;42.642;23.310;2023-03-26T13:39:39;93380.88;;;17.38;26.59
28911;BME280;16028;42.642;23.310;2023-03-26T13:42:17;93378.66;;;17.15;26.47
28911;BME280;16028;42.642;23.310;2023-03-26T13:44:54;93376.84;;;17.09;25.87
28911;BME280;16028;42.642;23.310;2023-03-26T13:47:25;93379.66;;;16.88;27.53
28911;BME280;16028;42.642;23.310;2023-03-26T13:49:54;93370.34;;;16.85;29.35
28911;BME280;16028;42.642;23.310;2023-03-26T13:52:24;93364.53;;;17.23;28.24